DLH765 EDDM-VOBL
Flight info
| Callsign | DLH765 |
|---|---|
| Flight time | N/A |
| Altitude | 23000 |
| Route | KIRDI4N KIRDI DCT BUWOQ DCT OBFEZ/N0481F370 DCT STEIN DCT SIRDU DCT GITAS/N0479F390 DCT BOKSI DCT TEGRI DCT UDROS DCT CRM UM11 REBLO P130 MAMED/N0487F410 B449 RANAH L750 ZB G202 HILAL/N0493F390 G202 RK P628 VIKIT/N0489F410 Z8 ABVUL Z9 UUD L518 HIA Q21 LURGI/N0490F400 Q21 TELUV TELUV7E |
| Aircraft | A359/H-SDE2E3GHIJ3J4J5LM1ORWXY/LB1D1 |
Departure
| Time | 2026-05-06 22:55 |
|---|---|
| Airport | Munich Airport (EDDM) |
Arrival
| Time | N/A |
|---|---|
| Airport | Kempegowda International Airport Bengaluru (VOBL) |
| Time | Latitude | Longitude | Altitude | Speed | Heading |
|---|---|---|---|---|---|
| 2026-05-06 22:39 | 48.35411 | 11.79326 | 1492 ft | 0 kts | 271° |
| 2026-05-06 22:46 | 48.35411 | 11.79354 | 1480 ft | 4 kts | 271° |
| 2026-05-06 22:47 | 48.35410 | 11.79394 | 1478 ft | 4 kts | 272° |
| 2026-05-06 22:47 | 48.35409 | 11.79431 | 1476 ft | 4 kts | 258° |
| 2026-05-06 22:47 | 48.35421 | 11.79455 | 1476 ft | 4 kts | 189° |
| 2026-05-06 22:47 | 48.35447 | 11.79456 | 1476 ft | 3 kts | 173° |
| 2026-05-06 22:48 | 48.35455 | 11.79454 | 1476 ft | 0 kts | 173° |
| 2026-05-06 22:50 | 48.35431 | 11.79458 | 1476 ft | 9 kts | 174° |
| 2026-05-06 22:50 | 48.35339 | 11.79475 | 1478 ft | 15 kts | 173° |
| 2026-05-06 22:50 | 48.35235 | 11.79492 | 1478 ft | 15 kts | 174° |
| 2026-05-06 22:50 | 48.35126 | 11.79510 | 1477 ft | 16 kts | 173° |
| 2026-05-06 22:51 | 48.35011 | 11.79530 | 1478 ft | 17 kts | 173° |
| 2026-05-06 22:51 | 48.34890 | 11.79553 | 1485 ft | 18 kts | 173° |
| 2026-05-06 22:51 | 48.34804 | 11.79602 | 1481 ft | 6 kts | 114° |
| 2026-05-06 22:51 | 48.34801 | 11.79687 | 1482 ft | 11 kts | 84° |
| 2026-05-06 22:52 | 48.34812 | 11.79837 | 1484 ft | 18 kts | 80° |
| 2026-05-06 22:52 | 48.34830 | 11.80053 | 1484 ft | 25 kts | 83° |
| 2026-05-06 22:52 | 48.34851 | 11.80340 | 1479 ft | 26 kts | 84° |
| 2026-05-06 22:52 | 48.34830 | 11.80513 | 1476 ft | 13 kts | 125° |
| 2026-05-06 22:53 | 48.34767 | 11.80559 | 1485 ft | 8 kts | 173° |
| 2026-05-06 22:53 | 48.34705 | 11.80570 | 1489 ft | 10 kts | 173° |
| 2026-05-06 22:53 | 48.34637 | 11.80568 | 1482 ft | 10 kts | 199° |
| 2026-05-06 22:53 | 48.34564 | 11.80494 | 1476 ft | 15 kts | 218° |
| 2026-05-06 22:54 | 48.34485 | 11.80362 | 1480 ft | 17 kts | 240° |
| 2026-05-06 22:54 | 48.34458 | 11.80205 | 1492 ft | 15 kts | 263° |
| 2026-05-06 22:54 | 48.34436 | 11.79908 | 1476 ft | 54 kts | 263° |
| 2026-05-06 22:54 | 48.34370 | 11.79039 | 1492 ft | 111 kts | 263° |
| 2026-05-06 22:55 | 48.34304 | 11.78155 | 1487 ft | 144 kts | 265° |
| 2026-05-06 22:55 | 48.34169 | 11.76517 | 1845 ft | 158 kts | 261° |
| 2026-05-06 22:55 | 48.34061 | 11.74959 | 2725 ft | 143 kts | 264° |
| 2026-05-06 22:55 | 48.33986 | 11.73524 | 3423 ft | 137 kts | 267° |
| 2026-05-06 22:56 | 48.33684 | 11.72027 | 3514 ft | 167 kts | 241° |
| 2026-05-06 22:56 | 48.32282 | 11.70603 | 3857 ft | 207 kts | 201° |
| 2026-05-06 22:56 | 48.31275 | 11.70479 | 4165 ft | 221 kts | 183° |
| 2026-05-06 22:56 | 48.29786 | 11.70987 | 4774 ft | 230 kts | 165° |
| 2026-05-06 22:57 | 48.28390 | 11.72230 | 5372 ft | 238 kts | 146° |
| 2026-05-06 22:57 | 48.27067 | 11.73877 | 5824 ft | 251 kts | 147° |
| 2026-05-06 22:57 | 48.25689 | 11.75540 | 6305 ft | 263 kts | 147° |
| 2026-05-06 22:57 | 48.24214 | 11.77267 | 6770 ft | 276 kts | 148° |
| 2026-05-06 22:58 | 48.22635 | 11.79052 | 7201 ft | 290 kts | 148° |
| 2026-05-06 22:58 | 48.21010 | 11.80834 | 8093 ft | 285 kts | 149° |
| 2026-05-06 22:58 | 48.19539 | 11.82745 | 9234 ft | 280 kts | 133° |
| 2026-05-06 22:58 | 48.18828 | 11.85460 | 10168 ft | 288 kts | 98° |
| 2026-05-06 22:59 | 48.19035 | 11.88495 | 10774 ft | 301 kts | 85° |
| 2026-05-06 22:59 | 48.19332 | 11.91696 | 11029 ft | 321 kts | 85° |
| 2026-05-06 22:59 | 48.19591 | 11.95024 | 11812 ft | 320 kts | 88° |
| 2026-05-06 22:59 | 48.19754 | 11.98289 | 12683 ft | 318 kts | 88° |
| 2026-05-06 23:00 | 48.19955 | 12.01603 | 13452 ft | 320 kts | 87° |
| 2026-05-06 23:00 | 48.20170 | 12.04948 | 14074 ft | 324 kts | 87° |
| 2026-05-06 23:00 | 48.20379 | 12.08277 | 14697 ft | 326 kts | 88° |
| 2026-05-06 23:00 | 48.20589 | 12.11678 | 15344 ft | 328 kts | 88° |
| 2026-05-06 23:01 | 48.20796 | 12.15101 | 15976 ft | 331 kts | 89° |
| 2026-05-06 23:01 | 48.21002 | 12.18547 | 16622 ft | 334 kts | 89° |
| 2026-05-06 23:01 | 48.21209 | 12.22030 | 17252 ft | 337 kts | 89° |
| 2026-05-06 23:01 | 48.21415 | 12.25534 | 17876 ft | 339 kts | 89° |
| 2026-05-06 23:02 | 48.21623 | 12.29079 | 18437 ft | 343 kts | 90° |
| 2026-05-06 23:02 | 48.21831 | 12.32660 | 18926 ft | 347 kts | 90° |
| 2026-05-06 23:02 | 48.22039 | 12.36277 | 19406 ft | 350 kts | 90° |
| 2026-05-06 23:02 | 48.22249 | 12.39931 | 19913 ft | 354 kts | 90° |
| 2026-05-06 23:03 | 48.22460 | 12.43621 | 20422 ft | 357 kts | 90° |
| 2026-05-06 23:03 | 48.22579 | 12.47381 | 20724 ft | 366 kts | 94° |
| 2026-05-06 23:03 | 48.22630 | 12.51267 | 20956 ft | 378 kts | 95° |
| 2026-05-06 23:03 | 48.22651 | 12.55272 | 21201 ft | 390 kts | 95° |
| 2026-05-06 23:04 | 48.22657 | 12.59402 | 21441 ft | 402 kts | 95° |
| 2026-05-06 23:04 | 48.22656 | 12.63662 | 21703 ft | 414 kts | 95° |
| 2026-05-06 23:04 | 48.22654 | 12.68043 | 21949 ft | 426 kts | 95° |
| 2026-05-06 23:04 | 48.22652 | 12.72535 | 22193 ft | 437 kts | 95° |
| 2026-05-06 23:05 | 48.22651 | 12.77160 | 22441 ft | 448 kts | 95° |
| 2026-05-06 23:05 | 48.22650 | 12.81880 | 22812 ft | 456 kts | 95° |
| 2026-05-06 23:05 | 48.22650 | 12.86661 | 23305 ft | 461 kts | 95° |
| 2026-05-06 23:05 | 48.22650 | 12.91485 | 23758 ft | 465 kts | 95° |
| 2026-05-06 23:06 | 48.22646 | 12.96319 | 24071 ft | 471 kts | 96° |
| 2026-05-06 23:06 | 48.22638 | 13.01271 | 24351 ft | 479 kts | 96° |
| 2026-05-06 23:06 | 48.22625 | 13.06321 | 24567 ft | 489 kts | 96° |
| 2026-05-06 23:06 | 48.22608 | 13.11465 | 24784 ft | 498 kts | 96° |
| 2026-05-06 23:07 | 48.22590 | 13.16702 | 25021 ft | 506 kts | 96° |
| 2026-05-06 23:07 | 48.22572 | 13.21936 | 25378 ft | 511 kts | 96° |
| 2026-05-06 23:07 | 48.22552 | 13.27277 | 25793 ft | 514 kts | 96° |
| 2026-05-06 23:07 | 48.22531 | 13.32657 | 26198 ft | 518 kts | 96° |
| 2026-05-06 23:08 | 48.22506 | 13.38070 | 26546 ft | 521 kts | 96° |
| 2026-05-06 23:08 | 48.22478 | 13.43514 | 27003 ft | 523 kts | 96° |
| 2026-05-06 23:08 | 48.22447 | 13.48979 | 27366 ft | 526 kts | 96° |
| 2026-05-06 23:08 | 48.22412 | 13.54492 | 27703 ft | 530 kts | 96° |
| 2026-05-06 23:09 | 48.22373 | 13.60029 | 28080 ft | 532 kts | 96° |
| 2026-05-06 23:09 | 48.22333 | 13.65575 | 28551 ft | 533 kts | 96° |
| 2026-05-06 23:09 | 48.22291 | 13.71133 | 29058 ft | 532 kts | 96° |
| 2026-05-06 23:09 | 48.22246 | 13.76684 | 29533 ft | 533 kts | 96° |
| 2026-05-06 23:10 | 48.22198 | 13.82239 | 29950 ft | 532 kts | 96° |
| 2026-05-06 23:10 | 48.22147 | 13.87781 | 30383 ft | 531 kts | 96° |
| 2026-05-06 23:10 | 48.22047 | 13.93309 | 30833 ft | 526 kts | 100° |
| 2026-05-06 23:10 | 48.21543 | 13.98707 | 31223 ft | 518 kts | 109° |
| 2026-05-06 23:11 | 48.20563 | 14.03843 | 31614 ft | 510 kts | 115° |
| 2026-05-06 23:11 | 48.19321 | 14.08793 | 31997 ft | 505 kts | 119° |
| 2026-05-06 23:11 | 48.17944 | 14.13634 | 32374 ft | 503 kts | 121° |
| 2026-05-06 23:11 | 48.16528 | 14.18342 | 32738 ft | 501 kts | 121° |
| 2026-05-06 23:12 | 48.15080 | 14.23081 | 33065 ft | 500 kts | 121° |
| 2026-05-06 23:12 | 48.13639 | 14.27817 | 33423 ft | 500 kts | 121° |
| 2026-05-06 23:12 | 48.12207 | 14.32569 | 33752 ft | 500 kts | 121° |
| 2026-05-06 23:12 | 48.10790 | 14.37313 | 34070 ft | 499 kts | 121° |
| 2026-05-06 23:13 | 48.09380 | 14.42059 | 34338 ft | 499 kts | 121° |
| 2026-05-06 23:13 | 48.07975 | 14.46799 | 34591 ft | 498 kts | 120° |
| 2026-05-06 23:13 | 48.06571 | 14.51537 | 34859 ft | 498 kts | 120° |
| 2026-05-06 23:13 | 48.05166 | 14.56270 | 35120 ft | 497 kts | 120° |
| 2026-05-06 23:14 | 48.03762 | 14.60990 | 35352 ft | 497 kts | 120° |
| 2026-05-06 23:14 | 48.00926 | 14.70482 | 35578 ft | 502 kts | 120° |
| 2026-05-06 23:14 | 47.99502 | 14.75238 | 35861 ft | 501 kts | 120° |
| 2026-05-06 23:15 | 47.98078 | 14.79985 | 36133 ft | 500 kts | 120° |
| 2026-05-06 23:15 | 47.96656 | 14.84715 | 36341 ft | 500 kts | 120° |
| 2026-05-06 23:15 | 47.95234 | 14.89435 | 36569 ft | 499 kts | 120° |
| 2026-05-06 23:15 | 47.93807 | 14.94160 | 36746 ft | 499 kts | 120° |
| 2026-05-06 23:16 | 47.92379 | 14.98882 | 36907 ft | 499 kts | 120° |
| 2026-05-06 23:16 | 47.90972 | 15.03528 | 37197 ft | 497 kts | 120° |
| 2026-05-06 23:16 | 47.89551 | 15.08213 | 37420 ft | 496 kts | 120° |
| 2026-05-06 23:16 | 47.88154 | 15.12807 | 37613 ft | 496 kts | 120° |
| 2026-05-06 23:17 | 47.86743 | 15.17434 | 37800 ft | 496 kts | 120° |
| 2026-05-06 23:17 | 47.85312 | 15.22123 | 37991 ft | 495 kts | 120° |
| 2026-05-06 23:17 | 47.83845 | 15.26696 | 38106 ft | 489 kts | 134° |
| 2026-05-06 23:17 | 47.82135 | 15.31055 | 37753 ft | 489 kts | 136° |
| 2026-05-06 23:18 | 47.80376 | 15.35384 | 37329 ft | 496 kts | 124° |
| 2026-05-06 23:18 | 47.78831 | 15.40042 | 37222 ft | 506 kts | 117° |
| 2026-05-06 23:18 | 47.77593 | 15.44915 | 37646 ft | 502 kts | 115° |
| 2026-05-06 23:18 | 47.76394 | 15.49737 | 38012 ft | 495 kts | 116° |
| 2026-05-06 23:19 | 47.75165 | 15.54516 | 38207 ft | 494 kts | 116° |
| 2026-05-06 23:19 | 47.73916 | 15.59235 | 38639 ft | 486 kts | 117° |
| 2026-05-06 23:19 | 47.72657 | 15.63875 | 38880 ft | 483 kts | 117° |
| 2026-05-06 23:20 | 47.69948 | 15.73058 | 38819 ft | 487 kts | 120° |
| 2026-05-06 23:20 | 47.67299 | 15.81471 | 38810 ft | 493 kts | 120° |
| 2026-05-06 23:20 | 47.65867 | 15.86027 | 38921 ft | 493 kts | 120° |
| 2026-05-06 23:21 | 47.64424 | 15.90648 | 38996 ft | 494 kts | 120° |
| 2026-05-06 23:21 | 47.61537 | 15.99953 | 39038 ft | 498 kts | 120° |
| 2026-05-06 23:22 | 47.58649 | 16.09283 | 39229 ft | 497 kts | 120° |
| 2026-05-06 23:22 | 47.55749 | 16.18620 | 39261 ft | 501 kts | 119° |
| 2026-05-06 23:23 | 47.52830 | 16.27979 | 39443 ft | 500 kts | 119° |
| 2026-05-06 23:23 | 47.49907 | 16.37313 | 39619 ft | 500 kts | 119° |
| 2026-05-06 23:24 | 47.46996 | 16.46570 | 39754 ft | 500 kts | 119° |
| 2026-05-06 23:24 | 47.44057 | 16.55884 | 39901 ft | 500 kts | 119° |
| 2026-05-06 23:25 | 47.41484 | 16.65476 | 40011 ft | 503 kts | 114° |
| 2026-05-06 23:25 | 47.39176 | 16.75233 | 40146 ft | 504 kts | 113° |
| 2026-05-06 23:26 | 47.36903 | 16.85006 | 40253 ft | 504 kts | 112° |
| 2026-05-06 23:26 | 47.34615 | 16.94779 | 40342 ft | 504 kts | 112° |
| 2026-05-06 23:27 | 47.32315 | 17.04526 | 40485 ft | 503 kts | 112° |
| 2026-05-06 23:27 | 47.30001 | 17.14270 | 40595 ft | 503 kts | 113° |
| 2026-05-06 23:28 | 47.27682 | 17.23985 | 40680 ft | 503 kts | 112° |
| 2026-05-06 23:28 | 47.25349 | 17.33717 | 40710 ft | 504 kts | 112° |
| 2026-05-06 23:29 | 47.23053 | 17.43467 | 40834 ft | 504 kts | 112° |
| 2026-05-06 23:29 | 47.20794 | 17.53157 | 40887 ft | 504 kts | 112° |
| 2026-05-06 23:30 | 47.18506 | 17.62906 | 40896 ft | 504 kts | 112° |
| 2026-05-06 23:30 | 47.16209 | 17.72624 | 40892 ft | 503 kts | 112° |
| 2026-05-06 23:31 | 47.13904 | 17.82319 | 40913 ft | 503 kts | 112° |
| 2026-05-06 23:31 | 47.11590 | 17.92011 | 40923 ft | 503 kts | 112° |
| 2026-05-06 23:32 | 47.09269 | 18.01688 | 40915 ft | 503 kts | 112° |
| 2026-05-06 23:32 | 47.06940 | 18.11356 | 40923 ft | 503 kts | 112° |
| 2026-05-06 23:33 | 47.04604 | 18.21025 | 40915 ft | 503 kts | 112° |
| 2026-05-06 23:33 | 47.02245 | 18.30665 | 40923 ft | 503 kts | 112° |
| 2026-05-06 23:34 | 46.99863 | 18.40310 | 40921 ft | 502 kts | 112° |
| 2026-05-06 23:34 | 46.97498 | 18.49864 | 40924 ft | 502 kts | 112° |
| 2026-05-06 23:35 | 46.95109 | 18.59491 | 40928 ft | 502 kts | 112° |
| 2026-05-06 23:35 | 46.92716 | 18.69096 | 40930 ft | 502 kts | 112° |
| 2026-05-06 23:36 | 46.90315 | 18.78689 | 40929 ft | 502 kts | 112° |
| 2026-05-06 23:36 | 46.87905 | 18.88278 | 40931 ft | 502 kts | 112° |
| 2026-05-06 23:37 | 46.85508 | 18.97779 | 40937 ft | 502 kts | 113° |
| 2026-05-06 23:37 | 46.83083 | 19.07345 | 40934 ft | 502 kts | 113° |
| 2026-05-06 23:38 | 46.80652 | 19.16897 | 40937 ft | 502 kts | 112° |
| 2026-05-06 23:38 | 46.78206 | 19.26469 | 40938 ft | 504 kts | 112° |
| 2026-05-06 23:39 | 46.75750 | 19.36040 | 40933 ft | 504 kts | 112° |
| 2026-05-06 23:39 | 46.73285 | 19.45606 | 40922 ft | 504 kts | 112° |
| 2026-05-06 23:40 | 46.70812 | 19.55163 | 40938 ft | 504 kts | 112° |
| 2026-05-06 23:40 | 46.68329 | 19.64720 | 40938 ft | 504 kts | 112° |
| 2026-05-06 23:41 | 46.66260 | 19.72653 | 40937 ft | 504 kts | 112° |
| 2026-05-06 23:41 | 46.63763 | 19.82194 | 40930 ft | 504 kts | 112° |
| 2026-05-06 23:42 | 46.60731 | 19.93197 | 40929 ft | 504 kts | 115° |
| 2026-05-06 23:42 | 46.57996 | 20.02566 | 40932 ft | 504 kts | 115° |
| 2026-05-06 23:43 | 46.55722 | 20.10361 | 40929 ft | 504 kts | 115° |
| 2026-05-06 23:43 | 46.52985 | 20.19800 | 40941 ft | 504 kts | 115° |
| 2026-05-06 23:44 | 46.50284 | 20.29122 | 40950 ft | 504 kts | 115° |
| 2026-05-06 23:44 | 46.47561 | 20.38490 | 40933 ft | 504 kts | 115° |
| 2026-05-06 23:45 | 46.44829 | 20.47849 | 40937 ft | 504 kts | 115° |
| 2026-05-06 23:45 | 46.42088 | 20.57201 | 40947 ft | 504 kts | 115° |
| 2026-05-06 23:46 | 46.39337 | 20.66550 | 40944 ft | 504 kts | 115° |
| 2026-05-06 23:46 | 46.36580 | 20.75885 | 40949 ft | 504 kts | 115° |
| 2026-05-06 23:47 | 46.33814 | 20.85213 | 40944 ft | 504 kts | 115° |
| 2026-05-06 23:47 | 46.31057 | 20.94481 | 40938 ft | 505 kts | 115° |
| 2026-05-06 23:48 | 46.28274 | 21.03797 | 40942 ft | 505 kts | 115° |
| 2026-05-06 23:48 | 46.25484 | 21.13103 | 40939 ft | 505 kts | 115° |
| 2026-05-06 23:49 | 46.22619 | 21.22379 | 40935 ft | 505 kts | 116° |
| 2026-05-06 23:49 | 46.19719 | 21.31614 | 40932 ft | 505 kts | 116° |
| 2026-05-06 23:50 | 46.16821 | 21.40846 | 40941 ft | 505 kts | 116° |
| 2026-05-06 23:50 | 46.12472 | 21.54690 | 40944 ft | 505 kts | 116° |
| 2026-05-06 23:51 | 46.09564 | 21.63914 | 40957 ft | 505 kts | 116° |
| 2026-05-06 23:51 | 46.06671 | 21.73056 | 40958 ft | 505 kts | 116° |
| 2026-05-06 23:52 | 46.03749 | 21.82254 | 40966 ft | 505 kts | 116° |
| 2026-05-06 23:52 | 46.00820 | 21.91442 | 40966 ft | 505 kts | 116° |
| 2026-05-06 23:53 | 45.97883 | 22.00621 | 40967 ft | 505 kts | 116° |
| 2026-05-06 23:53 | 45.94941 | 22.09785 | 40977 ft | 504 kts | 116° |
| 2026-05-06 23:54 | 45.91993 | 22.18934 | 40982 ft | 504 kts | 117° |
| 2026-05-06 23:54 | 45.89039 | 22.28072 | 40982 ft | 504 kts | 117° |
| 2026-05-06 23:55 | 45.86074 | 22.37210 | 40993 ft | 505 kts | 117° |
| 2026-05-06 23:55 | 45.83120 | 22.46279 | 40998 ft | 505 kts | 117° |
| 2026-05-06 23:56 | 45.80142 | 22.55394 | 40998 ft | 505 kts | 117° |
| 2026-05-06 23:56 | 45.77157 | 22.64495 | 41007 ft | 504 kts | 117° |
| 2026-05-06 23:57 | 45.74168 | 22.73581 | 41015 ft | 504 kts | 117° |
| 2026-05-06 23:57 | 45.71171 | 22.82657 | 41015 ft | 504 kts | 117° |
| 2026-05-06 23:58 | 45.68171 | 22.91710 | 41014 ft | 504 kts | 117° |
| 2026-05-06 23:58 | 45.65184 | 23.00693 | 41026 ft | 503 kts | 117° |
| 2026-05-06 23:59 | 45.62174 | 23.09715 | 41024 ft | 503 kts | 117° |
| 2026-05-06 23:59 | 45.59152 | 23.18743 | 41034 ft | 503 kts | 117° |
| 2026-05-07 00:00 | 45.56123 | 23.27757 | 41049 ft | 504 kts | 117° |
| 2026-05-07 00:00 | 45.53083 | 23.36778 | 41062 ft | 504 kts | 117° |
| 2026-05-07 00:01 | 45.50040 | 23.45777 | 41058 ft | 504 kts | 117° |
| 2026-05-07 00:01 | 45.46987 | 23.54769 | 41069 ft | 503 kts | 117° |
| 2026-05-07 00:02 | 45.43950 | 23.63683 | 41074 ft | 503 kts | 117° |
| 2026-05-07 00:02 | 45.40887 | 23.72649 | 41072 ft | 504 kts | 117° |
| 2026-05-07 00:03 | 45.37816 | 23.81606 | 41074 ft | 504 kts | 118° |
| 2026-05-07 00:03 | 45.34740 | 23.90550 | 41066 ft | 503 kts | 117° |
| 2026-05-07 00:04 | 45.31651 | 23.99496 | 41075 ft | 504 kts | 118° |
| 2026-05-07 00:04 | 45.28560 | 24.08426 | 41077 ft | 502 kts | 118° |
| 2026-05-07 00:05 | 45.25472 | 24.17313 | 41078 ft | 502 kts | 118° |
| 2026-05-07 00:05 | 45.22369 | 24.26212 | 41074 ft | 502 kts | 117° |
| 2026-05-07 00:06 | 45.19265 | 24.35088 | 41080 ft | 502 kts | 117° |
| 2026-05-07 00:06 | 45.16170 | 24.43906 | 41080 ft | 503 kts | 117° |
| 2026-05-07 00:07 | 45.13046 | 24.52781 | 41081 ft | 503 kts | 118° |
| 2026-05-07 00:07 | 45.09920 | 24.61629 | 41084 ft | 503 kts | 117° |
| 2026-05-07 00:08 | 45.06789 | 24.70462 | 41084 ft | 503 kts | 117° |
| 2026-05-07 00:08 | 45.03648 | 24.79295 | 41073 ft | 503 kts | 117° |
| 2026-05-07 00:09 | 45.00496 | 24.88131 | 41076 ft | 503 kts | 117° |
| 2026-05-07 00:09 | 44.97337 | 24.96958 | 41078 ft | 504 kts | 117° |
| 2026-05-07 00:10 | 44.94166 | 25.05791 | 41078 ft | 504 kts | 117° |
| 2026-05-07 00:10 | 44.91013 | 25.14545 | 41077 ft | 503 kts | 117° |
| 2026-05-07 00:11 | 44.87829 | 25.23353 | 41075 ft | 503 kts | 117° |
| 2026-05-07 00:11 | 44.84644 | 25.32138 | 41075 ft | 504 kts | 117° |
| 2026-05-07 00:12 | 44.81449 | 25.40923 | 41075 ft | 504 kts | 117° |
| 2026-05-07 00:12 | 44.78248 | 25.49695 | 41069 ft | 504 kts | 117° |
| 2026-05-07 00:13 | 44.75041 | 25.58455 | 41067 ft | 504 kts | 117° |
| 2026-05-07 00:13 | 44.71829 | 25.67201 | 41063 ft | 503 kts | 117° |
| 2026-05-07 00:14 | 44.68605 | 25.75952 | 41059 ft | 503 kts | 117° |
| 2026-05-07 00:14 | 44.65377 | 25.84684 | 41054 ft | 504 kts | 117° |
| 2026-05-07 00:15 | 44.62142 | 25.93411 | 41051 ft | 504 kts | 117° |
| 2026-05-07 00:15 | 44.58920 | 26.02075 | 41049 ft | 504 kts | 117° |
| 2026-05-07 00:16 | 44.55670 | 26.10784 | 41053 ft | 504 kts | 117° |
| 2026-05-07 00:16 | 44.52415 | 26.19481 | 41048 ft | 504 kts | 117° |
| 2026-05-07 00:17 | 44.49152 | 26.28172 | 41061 ft | 504 kts | 117° |
| 2026-05-07 00:17 | 44.45881 | 26.36857 | 41063 ft | 504 kts | 117° |
| 2026-05-07 00:18 | 44.42605 | 26.45528 | 41063 ft | 504 kts | 117° |
| 2026-05-07 00:18 | 44.39322 | 26.54190 | 41061 ft | 504 kts | 117° |
| 2026-05-07 00:19 | 44.36030 | 26.62849 | 41061 ft | 504 kts | 117° |
| 2026-05-07 00:19 | 44.32731 | 26.71499 | 41061 ft | 504 kts | 117° |
| 2026-05-07 00:20 | 44.29429 | 26.80131 | 41061 ft | 504 kts | 117° |
| 2026-05-07 00:20 | 44.26115 | 26.88767 | 41061 ft | 504 kts | 117° |
| 2026-05-07 00:21 | 44.22799 | 26.97384 | 41061 ft | 504 kts | 117° |
| 2026-05-07 00:21 | 44.19494 | 27.05943 | 41064 ft | 504 kts | 117° |
| 2026-05-07 00:22 | 44.16163 | 27.14542 | 41068 ft | 505 kts | 117° |
| 2026-05-07 00:22 | 44.12822 | 27.23143 | 41067 ft | 505 kts | 117° |
| 2026-05-07 00:23 | 44.09474 | 27.31736 | 41073 ft | 505 kts | 117° |
| 2026-05-07 00:23 | 44.06120 | 27.40317 | 41075 ft | 505 kts | 118° |
| 2026-05-07 00:24 | 44.02755 | 27.48901 | 41080 ft | 505 kts | 118° |
| 2026-05-07 00:24 | 43.99387 | 27.57466 | 41080 ft | 505 kts | 118° |
| 2026-05-07 00:25 | 43.96010 | 27.66029 | 41086 ft | 505 kts | 118° |
| 2026-05-07 00:25 | 43.93196 | 27.73143 | 41088 ft | 506 kts | 118° |
| 2026-05-07 00:26 | 43.89255 | 27.83077 | 41089 ft | 506 kts | 118° |
| 2026-05-07 00:26 | 43.85850 | 27.91632 | 41097 ft | 506 kts | 118° |
| 2026-05-07 00:27 | 43.82442 | 28.00168 | 41097 ft | 507 kts | 118° |
| 2026-05-07 00:27 | 43.79025 | 28.08700 | 41102 ft | 507 kts | 118° |
| 2026-05-07 00:28 | 43.75597 | 28.17237 | 41102 ft | 507 kts | 118° |
| 2026-05-07 00:28 | 43.72161 | 28.25766 | 41105 ft | 507 kts | 118° |
| 2026-05-07 00:29 | 43.69298 | 28.32854 | 41108 ft | 508 kts | 118° |
| 2026-05-07 00:30 | 43.61830 | 28.51261 | 41114 ft | 508 kts | 118° |
| 2026-05-07 00:30 | 43.58928 | 28.58379 | 41118 ft | 508 kts | 118° |
| 2026-05-07 00:31 | 43.55457 | 28.66874 | 41121 ft | 508 kts | 118° |
| 2026-05-07 00:31 | 43.51986 | 28.75341 | 41121 ft | 508 kts | 118° |
| 2026-05-07 00:32 | 43.48513 | 28.83789 | 41118 ft | 508 kts | 118° |
| 2026-05-07 00:32 | 43.45046 | 28.92198 | 41122 ft | 508 kts | 118° |
| 2026-05-07 00:33 | 43.41549 | 29.00656 | 41123 ft | 508 kts | 118° |
| 2026-05-07 00:33 | 43.38046 | 29.09103 | 41126 ft | 508 kts | 118° |
| 2026-05-07 00:34 | 43.34539 | 29.17535 | 41124 ft | 508 kts | 118° |
| 2026-05-07 00:34 | 43.31026 | 29.25957 | 41121 ft | 508 kts | 118° |
| 2026-05-07 00:35 | 43.27505 | 29.34372 | 41129 ft | 508 kts | 118° |
| 2026-05-07 00:35 | 43.24002 | 29.42721 | 41124 ft | 508 kts | 119° |
| 2026-05-07 00:36 | 43.20450 | 29.51161 | 41124 ft | 507 kts | 119° |
| 2026-05-07 00:36 | 43.16915 | 29.59539 | 41124 ft | 508 kts | 119° |
| 2026-05-07 00:37 | 43.13392 | 29.67863 | 41125 ft | 509 kts | 119° |
| 2026-05-07 00:37 | 43.09833 | 29.76247 | 41124 ft | 509 kts | 119° |
| 2026-05-07 00:38 | 43.06270 | 29.84617 | 41124 ft | 509 kts | 119° |
| 2026-05-07 00:38 | 43.02701 | 29.92977 | 41125 ft | 509 kts | 119° |
| 2026-05-07 00:39 | 42.99131 | 30.01316 | 41124 ft | 508 kts | 119° |
| 2026-05-07 00:39 | 42.95554 | 30.09648 | 41125 ft | 508 kts | 119° |
| 2026-05-07 00:40 | 42.91969 | 30.17974 | 41129 ft | 508 kts | 119° |
| 2026-05-07 00:40 | 42.88380 | 30.26285 | 41124 ft | 508 kts | 119° |
| 2026-05-07 00:41 | 42.84809 | 30.34531 | 41124 ft | 508 kts | 119° |
| 2026-05-07 00:41 | 42.81209 | 30.42822 | 41132 ft | 508 kts | 119° |
| 2026-05-07 00:42 | 42.77606 | 30.51096 | 41121 ft | 508 kts | 119° |
| 2026-05-07 00:42 | 42.74198 | 30.59489 | 41121 ft | 506 kts | 111° |
| 2026-05-07 00:43 | 42.71913 | 30.68515 | 41121 ft | 504 kts | 105° |
| 2026-05-07 00:43 | 42.69912 | 30.77651 | 41126 ft | 503 kts | 104° |
| 2026-05-07 00:44 | 42.67951 | 30.86793 | 41128 ft | 503 kts | 104° |
| 2026-05-07 00:44 | 42.65983 | 30.95846 | 41116 ft | 503 kts | 104° |
| 2026-05-07 00:45 | 42.63977 | 31.04958 | 41133 ft | 503 kts | 105° |
| 2026-05-07 00:45 | 42.61962 | 31.14054 | 41115 ft | 503 kts | 105° |
| 2026-05-07 00:46 | 42.59935 | 31.23160 | 41128 ft | 503 kts | 105° |
| 2026-05-07 00:46 | 42.57905 | 31.32249 | 41118 ft | 503 kts | 105° |
| 2026-05-07 00:47 | 42.55868 | 31.41335 | 41118 ft | 503 kts | 105° |
| 2026-05-07 00:47 | 42.53825 | 31.50405 | 41117 ft | 503 kts | 105° |
| 2026-05-07 00:48 | 42.51776 | 31.59466 | 41118 ft | 503 kts | 105° |
| 2026-05-07 00:48 | 42.49720 | 31.68520 | 41118 ft | 503 kts | 105° |
| 2026-05-07 00:49 | 42.47656 | 31.77575 | 41116 ft | 503 kts | 105° |
| 2026-05-07 00:49 | 42.45598 | 31.86565 | 41119 ft | 503 kts | 105° |
| 2026-05-07 00:50 | 42.43520 | 31.95602 | 41116 ft | 503 kts | 105° |
| 2026-05-07 00:50 | 42.41435 | 32.04635 | 41118 ft | 503 kts | 105° |
| 2026-05-07 00:51 | 42.39341 | 32.13671 | 41117 ft | 503 kts | 105° |
| 2026-05-07 00:51 | 42.37239 | 32.22703 | 41115 ft | 503 kts | 105° |
| 2026-05-07 00:52 | 42.35130 | 32.31732 | 41117 ft | 503 kts | 105° |
| 2026-05-07 00:52 | 42.33010 | 32.40768 | 41116 ft | 504 kts | 105° |
| 2026-05-07 00:53 | 42.30886 | 32.49787 | 41119 ft | 504 kts | 105° |
| 2026-05-07 00:53 | 42.28753 | 32.58808 | 41110 ft | 503 kts | 106° |
| 2026-05-07 00:54 | 42.26618 | 32.67798 | 41114 ft | 503 kts | 106° |
| 2026-05-07 00:54 | 42.24490 | 32.76726 | 41114 ft | 503 kts | 106° |
| 2026-05-07 00:55 | 42.22341 | 32.85711 | 41114 ft | 503 kts | 106° |
| 2026-05-07 00:55 | 42.20185 | 32.94683 | 41115 ft | 503 kts | 106° |
| 2026-05-07 00:56 | 42.18021 | 33.03660 | 41121 ft | 503 kts | 106° |
| 2026-05-07 00:56 | 42.15846 | 33.12641 | 41119 ft | 503 kts | 106° |
| 2026-05-07 00:57 | 42.13667 | 33.21605 | 41115 ft | 504 kts | 106° |
| 2026-05-07 00:57 | 42.11479 | 33.30571 | 41116 ft | 504 kts | 107° |
| 2026-05-07 00:58 | 42.09296 | 33.39483 | 41122 ft | 504 kts | 107° |
| 2026-05-07 00:58 | 42.07093 | 33.48442 | 41132 ft | 504 kts | 107° |
| 2026-05-07 00:59 | 42.03777 | 33.61863 | 41140 ft | 504 kts | 107° |
| 2026-05-07 01:00 | 42.01553 | 33.70822 | 41143 ft | 505 kts | 107° |
| 2026-05-07 01:00 | 41.99320 | 33.79782 | 41141 ft | 505 kts | 107° |
| 2026-05-07 01:01 | 41.97082 | 33.88730 | 41138 ft | 505 kts | 107° |
| 2026-05-07 01:01 | 41.94834 | 33.97677 | 41138 ft | 505 kts | 107° |
| 2026-05-07 01:02 | 41.92581 | 34.06614 | 41137 ft | 505 kts | 107° |
| 2026-05-07 01:02 | 41.90320 | 34.15548 | 41135 ft | 505 kts | 108° |
| 2026-05-07 01:03 | 41.88051 | 34.24482 | 41128 ft | 505 kts | 108° |
| 2026-05-07 01:03 | 41.85790 | 34.33350 | 41134 ft | 506 kts | 108° |
| 2026-05-07 01:04 | 41.83506 | 34.42276 | 41138 ft | 506 kts | 108° |
| 2026-05-07 01:04 | 41.81215 | 34.51195 | 41138 ft | 506 kts | 108° |
| 2026-05-07 01:05 | 41.78916 | 34.60112 | 41143 ft | 506 kts | 108° |
| 2026-05-07 01:05 | 41.76611 | 34.69023 | 41137 ft | 506 kts | 108° |
| 2026-05-07 01:06 | 41.74297 | 34.77932 | 41145 ft | 506 kts | 108° |
| 2026-05-07 01:06 | 41.71977 | 34.86830 | 41152 ft | 506 kts | 109° |
| 2026-05-07 01:07 | 41.69651 | 34.95718 | 41141 ft | 506 kts | 109° |
| 2026-05-07 01:07 | 41.67335 | 35.04539 | 41140 ft | 505 kts | 109° |
| 2026-05-07 01:08 | 41.65002 | 35.13392 | 41144 ft | 505 kts | 109° |
| 2026-05-07 01:08 | 41.62664 | 35.22230 | 41137 ft | 504 kts | 109° |
| 2026-05-07 01:09 | 41.60316 | 35.31073 | 41141 ft | 504 kts | 109° |
| 2026-05-07 01:09 | 41.57963 | 35.39906 | 41129 ft | 504 kts | 109° |
| 2026-05-07 01:10 | 41.55604 | 35.48727 | 41134 ft | 505 kts | 109° |
| 2026-05-07 01:10 | 41.53235 | 35.57555 | 41127 ft | 505 kts | 109° |
| 2026-05-07 01:11 | 41.50857 | 35.66383 | 41128 ft | 505 kts | 109° |
| 2026-05-07 01:11 | 41.48477 | 35.75188 | 41136 ft | 505 kts | 110° |
| 2026-05-07 01:12 | 41.46088 | 35.83995 | 41131 ft | 505 kts | 110° |
| 2026-05-07 01:12 | 41.43694 | 35.92789 | 41143 ft | 505 kts | 110° |
| 2026-05-07 01:13 | 41.41311 | 36.01514 | 41141 ft | 505 kts | 110° |
| 2026-05-07 01:13 | 41.38902 | 36.10304 | 41136 ft | 505 kts | 110° |
| 2026-05-07 01:14 | 41.36487 | 36.19081 | 41148 ft | 505 kts | 110° |
| 2026-05-07 01:14 | 41.34065 | 36.27854 | 41148 ft | 505 kts | 110° |
| 2026-05-07 01:15 | 41.31633 | 36.36636 | 41139 ft | 506 kts | 110° |
| 2026-05-07 01:15 | 41.29189 | 36.45426 | 41164 ft | 506 kts | 110° |
| 2026-05-07 01:16 | 41.27227 | 36.52752 | 41160 ft | 506 kts | 106° |
| 2026-05-07 01:16 | 41.26017 | 36.61950 | 41162 ft | 506 kts | 96° |
| 2026-05-07 01:17 | 41.25181 | 36.72779 | 41150 ft | 507 kts | 95° |
| 2026-05-07 01:17 | 41.24631 | 36.80602 | 41154 ft | 507 kts | 95° |
| 2026-05-07 01:18 | 41.23954 | 36.89928 | 41153 ft | 507 kts | 96° |
| 2026-05-07 01:18 | 41.23250 | 36.99251 | 41155 ft | 507 kts | 96° |
| 2026-05-07 01:19 | 41.22538 | 37.08505 | 41155 ft | 508 kts | 96° |
| 2026-05-07 01:19 | 41.21812 | 37.17838 | 41154 ft | 508 kts | 96° |
| 2026-05-07 01:20 | 41.21093 | 37.27124 | 41162 ft | 508 kts | 96° |
| 2026-05-07 01:20 | 41.20410 | 37.36453 | 41161 ft | 508 kts | 96° |
| 2026-05-07 01:21 | 41.19724 | 37.45803 | 41164 ft | 509 kts | 96° |
| 2026-05-07 01:21 | 41.19025 | 37.55164 | 41170 ft | 509 kts | 96° |
| 2026-05-07 01:22 | 41.18455 | 37.64523 | 41156 ft | 509 kts | 95° |
| 2026-05-07 01:22 | 41.17762 | 37.73864 | 41160 ft | 508 kts | 97° |
| 2026-05-07 01:23 | 41.16932 | 37.83186 | 41161 ft | 509 kts | 97° |
| 2026-05-07 01:23 | 41.16120 | 37.92385 | 41164 ft | 509 kts | 97° |
| 2026-05-07 01:24 | 41.15384 | 38.01486 | 41164 ft | 509 kts | 96° |
| 2026-05-07 01:24 | 41.14694 | 38.10189 | 41147 ft | 510 kts | 96° |
| 2026-05-07 01:25 | 41.13944 | 38.19495 | 41159 ft | 510 kts | 97° |
| 2026-05-07 01:25 | 41.13202 | 38.28541 | 41148 ft | 510 kts | 97° |
| 2026-05-07 01:26 | 41.12457 | 38.37615 | 41152 ft | 510 kts | 97° |
| 2026-05-07 01:26 | 41.11681 | 38.46933 | 41163 ft | 510 kts | 97° |
| 2026-05-07 01:27 | 41.10895 | 38.56286 | 41156 ft | 511 kts | 97° |
| 2026-05-07 01:27 | 41.10107 | 38.65595 | 41157 ft | 511 kts | 97° |
| 2026-05-07 01:28 | 41.09291 | 38.74962 | 41167 ft | 511 kts | 97° |
| 2026-05-07 01:28 | 41.08440 | 38.84319 | 41171 ft | 511 kts | 97° |
| 2026-05-07 01:29 | 41.07578 | 38.93685 | 41176 ft | 511 kts | 98° |
| 2026-05-07 01:29 | 41.06715 | 39.03043 | 41175 ft | 512 kts | 98° |
| 2026-05-07 01:30 | 41.05847 | 39.12414 | 41170 ft | 512 kts | 98° |
| 2026-05-07 01:30 | 41.04981 | 39.21780 | 41169 ft | 512 kts | 98° |
| 2026-05-07 01:31 | 41.04121 | 39.31140 | 41175 ft | 512 kts | 98° |
| 2026-05-07 01:31 | 41.03253 | 39.40497 | 41172 ft | 512 kts | 98° |
| 2026-05-07 01:32 | 41.02375 | 39.49854 | 41169 ft | 512 kts | 98° |
| 2026-05-07 01:32 | 41.01493 | 39.59156 | 41180 ft | 511 kts | 98° |
| 2026-05-07 01:33 | 41.00600 | 39.68502 | 41185 ft | 512 kts | 98° |
| 2026-05-07 01:33 | 40.99713 | 39.77857 | 41172 ft | 513 kts | 96° |
| 2026-05-07 01:34 | 40.99343 | 39.87289 | 41189 ft | 513 kts | 93° |
| 2026-05-07 01:34 | 40.99107 | 39.96752 | 41174 ft | 513 kts | 92° |
| 2026-05-07 01:35 | 40.98888 | 40.06204 | 41169 ft | 514 kts | 93° |
| 2026-05-07 01:35 | 40.98656 | 40.15666 | 41173 ft | 515 kts | 93° |
| 2026-05-07 01:36 | 40.98410 | 40.25133 | 41173 ft | 514 kts | 93° |
| 2026-05-07 01:36 | 40.98150 | 40.34604 | 41175 ft | 514 kts | 93° |
| 2026-05-07 01:37 | 40.97883 | 40.44002 | 41162 ft | 514 kts | 93° |
| 2026-05-07 01:37 | 40.97607 | 40.53474 | 41174 ft | 516 kts | 94° |
| 2026-05-07 01:38 | 40.97323 | 40.62959 | 41178 ft | 516 kts | 94° |
| 2026-05-07 01:38 | 40.97031 | 40.72451 | 41179 ft | 516 kts | 94° |
| 2026-05-07 01:39 | 40.96732 | 40.81942 | 41182 ft | 516 kts | 94° |
| 2026-05-07 01:39 | 40.96427 | 40.91437 | 41177 ft | 517 kts | 94° |
| 2026-05-07 01:40 | 40.96112 | 41.00940 | 41176 ft | 517 kts | 94° |
| 2026-05-07 01:40 | 40.95787 | 41.10465 | 41180 ft | 518 kts | 94° |
| 2026-05-07 01:41 | 40.95455 | 41.19981 | 41181 ft | 518 kts | 94° |
| 2026-05-07 01:41 | 40.95115 | 41.29500 | 41167 ft | 517 kts | 94° |
| 2026-05-07 01:42 | 40.94770 | 41.38965 | 41180 ft | 520 kts | 94° |
| 2026-05-07 01:42 | 40.94411 | 41.48526 | 41180 ft | 520 kts | 95° |
| 2026-05-07 01:43 | 40.94046 | 41.58091 | 41181 ft | 520 kts | 95° |
| 2026-05-07 01:43 | 40.93675 | 41.67642 | 41181 ft | 520 kts | 95° |
| 2026-05-07 01:44 | 40.93294 | 41.77202 | 41188 ft | 522 kts | 95° |
| 2026-05-07 01:44 | 40.92904 | 41.86790 | 41183 ft | 522 kts | 95° |
| 2026-05-07 01:45 | 40.92506 | 41.96372 | 41180 ft | 522 kts | 95° |
| 2026-05-07 01:45 | 40.92101 | 42.05953 | 41182 ft | 522 kts | 95° |
| 2026-05-07 01:46 | 40.91692 | 42.15463 | 41175 ft | 522 kts | 95° |
| 2026-05-07 01:46 | 40.91268 | 42.25087 | 41177 ft | 524 kts | 95° |
| 2026-05-07 01:47 | 40.90837 | 42.34708 | 41168 ft | 524 kts | 95° |
| 2026-05-07 01:47 | 40.90398 | 42.44315 | 41167 ft | 523 kts | 95° |
| 2026-05-07 01:48 | 40.89951 | 42.53919 | 41158 ft | 523 kts | 96° |
| 2026-05-07 01:48 | 40.89496 | 42.63531 | 41157 ft | 525 kts | 96° |
| 2026-05-07 01:49 | 40.89032 | 42.73163 | 41163 ft | 525 kts | 96° |
| 2026-05-07 01:49 | 40.88563 | 42.82741 | 41158 ft | 525 kts | 96° |
| 2026-05-07 01:50 | 40.88084 | 42.92359 | 41137 ft | 525 kts | 96° |
| 2026-05-07 01:50 | 40.87595 | 43.02002 | 41153 ft | 526 kts | 96° |
| 2026-05-07 01:51 | 40.87096 | 43.11669 | 41140 ft | 527 kts | 96° |
| 2026-05-07 01:51 | 40.86591 | 43.21330 | 41146 ft | 527 kts | 96° |
| 2026-05-07 01:52 | 40.86078 | 43.30987 | 41137 ft | 527 kts | 96° |
| 2026-05-07 01:52 | 40.85559 | 43.40585 | 41139 ft | 527 kts | 96° |
| 2026-05-07 01:53 | 40.85029 | 43.50247 | 41139 ft | 527 kts | 96° |
| 2026-05-07 01:53 | 40.84491 | 43.59893 | 41141 ft | 527 kts | 96° |
| 2026-05-07 01:54 | 40.83945 | 43.69540 | 41136 ft | 526 kts | 96° |
| 2026-05-07 01:54 | 40.82998 | 43.79102 | 41137 ft | 525 kts | 102° |
| 2026-05-07 01:55 | 40.81746 | 43.88617 | 41137 ft | 526 kts | 103° |
| 2026-05-07 01:55 | 40.80528 | 43.98149 | 41133 ft | 527 kts | 102° |
| 2026-05-07 01:56 | 40.79367 | 44.07692 | 41126 ft | 526 kts | 102° |
| 2026-05-07 01:56 | 40.78231 | 44.17174 | 41128 ft | 526 kts | 102° |
| 2026-05-07 01:57 | 40.77078 | 44.26723 | 41121 ft | 527 kts | 102° |
| 2026-05-07 01:57 | 40.75915 | 44.36274 | 41116 ft | 527 kts | 102° |
| 2026-05-07 01:58 | 40.74743 | 44.45814 | 41112 ft | 527 kts | 102° |
| 2026-05-07 01:58 | 40.73562 | 44.55364 | 41112 ft | 528 kts | 102° |
| 2026-05-07 01:59 | 40.72370 | 44.64922 | 41106 ft | 528 kts | 102° |
| 2026-05-07 01:59 | 40.71171 | 44.74482 | 41110 ft | 528 kts | 102° |
| 2026-05-07 02:00 | 40.69973 | 44.83963 | 41113 ft | 528 kts | 102° |
| 2026-05-07 02:00 | 40.68758 | 44.93521 | 41119 ft | 529 kts | 103° |
| 2026-05-07 02:01 | 40.67534 | 45.03077 | 41118 ft | 529 kts | 103° |
| 2026-05-07 02:01 | 40.66303 | 45.12621 | 41114 ft | 529 kts | 103° |
| 2026-05-07 02:02 | 40.65064 | 45.22167 | 41093 ft | 529 kts | 103° |
| 2026-05-07 02:02 | 40.63817 | 45.31720 | 41115 ft | 529 kts | 103° |
| 2026-05-07 02:03 | 40.62563 | 45.41256 | 41114 ft | 528 kts | 103° |
| 2026-05-07 02:03 | 40.61302 | 45.50787 | 41116 ft | 528 kts | 103° |
| 2026-05-07 02:04 | 40.60248 | 45.58703 | 41109 ft | 528 kts | 103° |
| 2026-05-07 02:04 | 40.58972 | 45.68230 | 41118 ft | 530 kts | 103° |
| 2026-05-07 02:05 | 40.57473 | 45.79340 | 41111 ft | 530 kts | 103° |
| 2026-05-07 02:05 | 40.56177 | 45.88882 | 41122 ft | 531 kts | 103° |
| 2026-05-07 02:06 | 40.55083 | 45.96890 | 41103 ft | 530 kts | 103° |
| 2026-05-07 02:06 | 40.53994 | 46.04818 | 41114 ft | 530 kts | 103° |